Time;durP1;ratioP1;P1;durP2;ratioP2;P2;SDS_P1;SDS_P2;PMS_P1;PMS_P2;Temp;Humidity;BMP_temperature;BMP_pressure;BME280_temperature;BME280_humidity;BME280_pressure;Samples;Min_cycle;Max_cycle;Signal;HPM_P1;HPM_P2
2023/08/31 00:02:07;;;;;;;;;;;;;;;;;;4945783;28;19936;-94
2023/08/31 00:04:33;;;;;;;;;;;;;;;;;;4954658;28;19930;-94
2023/08/31 00:06:59;;;;;;;;;;;;;;;;;;4951085;28;20237;-93
2023/08/31 00:09:25;;;;;;;;;;;;;;;;;;4943703;28;19926;-93
2023/08/31 00:11:54;;;;;;;;;;;;;;;;;;4952160;28;20425;-95
2023/08/31 00:14:20;;;;;;;;;;;;;;;;;;4970512;28;20069;-92
2023/08/31 00:16:48;;;;;;;;;;;;;;;;;;4948557;28;19962;-95
2023/08/31 00:19:14;;;;;;;;;;;;;;;;;;4955024;28;19968;-93
2023/08/31 00:21:43;;;;;;;;;;;;;;;;;;4951809;28;20378;-95
2023/08/31 00:24:10;;;;;;;;;;;;;;;;;;4948968;28;20028;-93
2023/08/31 00:26:39;;;;;;;;;;;;;;;;;;4949355;28;19925;-91
2023/08/31 00:29:05;;;;;;;;;;;;;;;;;;4947863;28;19926;-94
2023/08/31 00:31:31;;;;;;;;;;;;;;;;;;4949418;28;19926;-94
2023/08/31 00:33:57;;;;;;;;;;;;;;;;;;4949507;28;19929;-94
2023/08/31 00:36:23;;;;;;;;;;;;;;;;;;4947204;28;20267;-92
2023/08/31 00:38:49;;;;;;;;;;;;;;;;;;4952829;28;19930;-91
2023/08/31 00:41:15;;;;;;;;;;;;;;;;;;4940590;28;19930;-91
2023/08/31 00:43:41;;;;;;;;;;;;;;;;;;4949950;28;20003;-94
2023/08/31 00:46:07;;;;;;;;;;;;;;;;;;4952351;28;20374;-91
2023/08/31 00:48:33;;;;;;;;;;;;;;;;;;4949945;28;19948;-93
2023/08/31 00:51:00;;;;;;;;;;;;;;;;;;4948515;28;19926;-94
2023/08/31 00:53:26;;;;;;;;;;;;;;;;;;4965035;28;19937;-95
2023/08/31 00:55:52;;;;;;;;;;;;;;;;;;4959956;28;19930;-93
2023/08/31 00:58:19;;;;;;;;;;;;;;;;;;4954495;28;20017;-94
2023/08/31 01:00:45;;;;;;;;;;;;;;;;;;4951856;28;19926;-93
2023/08/31 01:03:11;;;;;;;;;;;;;;;;;;4977673;28;20293;-93
2023/08/31 01:05:38;;;;;;;;;;;;;;;;;;4952643;28;19936;-93
2023/08/31 01:08:04;;;;;;;;;;;;;;;;;;4945122;28;19929;-92
2023/08/31 01:10:29;;;;;;;;;;;;;;;;;;4954998;28;19933;-94
2023/08/31 01:12:55;;;;;;;;;;;;;;;;;;4951226;28;19927;-91
2023/08/31 01:15:31;;;;;;;;;;;;;;;;;;4983828;28;19984;-93
2023/08/31 01:17:57;;;;;;;;;;;;;;;;;;4956810;28;19930;-94
2023/08/31 01:20:27;;;;;;;;;;;;;;;;;;4957757;28;19922;-92
2023/08/31 01:22:53;;;;;;;;;;;;;;;;;;4955657;28;19930;-92
2023/08/31 01:25:19;;;;;;;;;;;;;;;;;;4950468;28;19922;-93
2023/08/31 01:27:44;;;;;;;;;;;;;;;;;;4981308;28;19937;-94
2023/08/31 01:30:11;;;;;;;;;;;;;;;;;;4956973;28;19929;-92
2023/08/31 01:32:37;;;;;;;;;;;;;;;;;;4948498;28;19930;-93
2023/08/31 01:35:12;;;;;;;;;;;;;;;;;;4946287;28;19927;-93
2023/08/31 01:37:38;;;;;;;;;;;;;;;;;;4951257;28;20298;-94
2023/08/31 01:40:04;;;;;;;;;;;;;;;;;;4957258;28;19926;-92
2023/08/31 01:42:30;;;;;;;;;;;;;;;;;;4953810;28;19949;-92
2023/08/31 01:44:56;;;;;;;;;;;;;;;;;;4950932;28;20393;-91
2023/08/31 01:47:22;;;;;;;;;;;;;;;;;;4976600;28;20425;-95
2023/08/31 01:49:48;;;;;;;;;;;;;;;;;;4950667;28;20008;-94
2023/08/31 01:52:14;;;;;;;;;;;;;;;;;;4948236;28;19930;-93
2023/08/31 01:54:40;;;;;;;;;;;;;;;;;;4954069;28;20500;-93
2023/08/31 01:57:06;;;;;;;;;;;;;;;;;;4962540;28;19990;-93
2023/08/31 01:59:32;;;;;;;;;;;;;;;;;;4953296;28;19925;-91
2023/08/31 02:01:58;;;;;;;;;;;;;;;;;;4950361;28;20041;-94
2023/08/31 02:04:24;;;;;;;;;;;;;;;;;;4954405;28;20217;-94
2023/08/31 02:06:50;;;;;;;;;;;;;;;;;;4950795;28;20308;-94
2023/08/31 02:09:16;;;;;;;;;;;;;;;;;;4946278;28;19934;-92
2023/08/31 02:11:42;;;;;;;;;;;;;;;;;;4947673;28;19925;-94
2023/08/31 02:14:07;;;;;;;;;;;;;;;;;;4953078;28;20013;-92
2023/08/31 02:16:33;;;;;;;;;;;;;;;;;;4949666;28;19930;-94
2023/08/31 02:18:59;;;;;;;;;;;;;;;;;;4954021;28;20026;-93
2023/08/31 02:21:25;;;;;;;;;;;;;;;;;;4960312;28;19930;-93
2023/08/31 02:23:51;;;;;;;;;;;;;;;;;;4944888;28;20378;-93
2023/08/31 02:26:17;;;;;;;;;;;;;;;;;;4966729;28;19934;-92
2023/08/31 02:28:43;;;;;;;;;;;;;;;;;;4948793;28;19929;-90
2023/08/31 02:31:09;;;;;;;;;;;;;;;;;;4943213;28;19981;-93
2023/08/31 02:33:36;;;;;;;;;;;;;;;;;;4948016;28;20369;-93
2023/08/31 02:36:02;;;;;;;;;;;;;;;;;;4946951;28;19934;-93
2023/08/31 02:38:28;;;;;;;;;;;;;;;;;;4953331;28;19930;-91
2023/08/31 02:40:53;;;;;;;;;;;;;;;;;;4948882;28;19981;-93
2023/08/31 02:43:23;;;;;;;;;;;;;;;;;;4940791;28;19926;-91
2023/08/31 02:45:49;;;;;;;;;;;;;;;;;;4948568;28;20263;-93
2023/08/31 02:48:15;;;;;;;;;;;;;;;;;;4953815;28;19937;-95
2023/08/31 02:50:41;;;;;;;;;;;;;;;;;;4953058;28;19941;-93
2023/08/31 02:53:10;;;;;;;;;;;;;;;;;;4953151;28;20274;-94
2023/08/31 02:55:36;;;;;;;;;;;;;;;;;;4963566;28;19937;-93
2023/08/31 02:58:02;;;;;;;;;;;;;;;;;;4946106;28;19930;-93
2023/08/31 03:00:28;;;;;;;;;;;;;;;;;;4947819;28;19933;-94
2023/08/31 03:02:54;;;;;;;;;;;;;;;;;;4950441;28;20317;-93
2023/08/31 03:05:23;;;;;;;;;;;;;;;;;;4945657;28;19925;-93
2023/08/31 03:07:49;;;;;;;;;;;;;;;;;;4954905;28;19937;-94
2023/08/31 03:10:15;;;;;;;;;;;;;;;;;;4952510;28;19926;-94
2023/08/31 03:12:42;;;;;;;;;;;;;;;;;;4955019;28;19930;-96
2023/08/31 03:15:08;;;;;;;;;;;;;;;;;;4957526;28;19939;-95
2023/08/31 03:17:37;;;;;;;;;;;;;;;;;;4960014;28;19956;-91
2023/08/31 03:20:06;;;;;;;;;;;;;;;;;;4955568;28;19969;-93
2023/08/31 03:22:32;;;;;;;;;;;;;;;;;;4959177;28;20404;-90
2023/08/31 03:24:58;;;;;;;;;;;;;;;;;;4971073;28;19992;-93
2023/08/31 03:27:27;;;;;;;;;;;;;;;;;;4955720;28;19930;-92
2023/08/31 03:29:52;;;;;;;;;;;;;;;;;;4952445;28;19936;-95
2023/08/31 03:32:18;;;;;;;;;;;;;;;;;;4952910;28;19933;-93
2023/08/31 03:34:44;;;;;;;;;;;;;;;;;;4955928;28;19930;-92
2023/08/31 03:37:10;;;;;;;;;;;;;;;;;;4952309;28;19936;-93
2023/08/31 03:39:37;;;;;;;;;;;;;;;;;;4954062;28;19925;-90
2023/08/31 03:42:03;;;;;;;;;;;;;;;;;;4952007;28;19930;-89
2023/08/31 03:44:28;;;;;;;;;;;;;;;;;;4953382;28;19945;-92
2023/08/31 03:46:54;;;;;;;;;;;;;;;;;;4952247;28;20298;-93
2023/08/31 03:49:20;;;;;;;;;;;;;;;;;;4954294;28;19937;-91
2023/08/31 03:51:46;;;;;;;;;;;;;;;;;;4952458;28;19925;-91
2023/08/31 03:54:12;;;;;;;;;;;;;;;;;;4968006;28;20093;-92
2023/08/31 03:56:41;;;;;;;;;;;;;;;;;;4952879;28;19977;-90
2023/08/31 03:59:07;;;;;;;;;;;;;;;;;;4952020;28;19930;-90
2023/08/31 04:01:33;;;;;;;;;;;;;;;;;;4952504;28;20478;-91
2023/08/31 04:03:59;;;;;;;;;;;;;;;;;;4950170;28;19941;-89
2023/08/31 04:06:25;;;;;;;;;;;;;;;;;;4967082;28;19933;-94
2023/08/31 04:08:51;;;;;;;;;;;;;;;;;;4951052;28;19936;-96
2023/08/31 04:11:17;;;;;;;;;;;;;;;;;;4952447;28;20328;-95
2023/08/31 04:13:43;;;;;;;;;;;;;;;;;;4947732;28;20092;-94
2023/08/31 04:16:09;;;;;;;;;;;;;;;;;;4957485;28;19936;-94
2023/08/31 04:18:35;;;;;;;;;;;;;;;;;;4949789;28;19930;-92
2023/08/31 04:21:03;;;;;;;;;;;;;;;;;;4951706;28;20290;-91
2023/08/31 04:23:29;;;;;;;;;;;;;;;;;;4968684;28;19934;-92
2023/08/31 04:25:55;;;;;;;;;;;;;;;;;;4950817;28;20293;-93
2023/08/31 04:28:21;;;;;;;;;;;;;;;;;;4952498;28;19929;-93
2023/08/31 04:30:49;;;;;;;;;;;;;;;;;;4943864;28;19937;-94
2023/08/31 04:33:14;;;;;;;;;;;;;;;;;;4960403;28;19930;-92
2023/08/31 04:35:40;;;;;;;;;;;;;;;;;;4964835;28;19937;-92
2023/08/31 04:38:06;;;;;;;;;;;;;;;;;;4970237;28;19926;-92
2023/08/31 04:40:32;;;;;;;;;;;;;;;;;;4950701;28;19952;-91
2023/08/31 04:42:58;;;;;;;;;;;;;;;;;;4976008;28;19952;-92
2023/08/31 04:45:24;;;;;;;;;;;;;;;;;;4965331;28;20268;-93
2023/08/31 04:47:51;;;;;;;;;;;;;;;;;;4949939;28;19930;-90
2023/08/31 04:50:17;;;;;;;;;;;;;;;;;;4950970;28;20024;-93
2023/08/31 04:52:43;;;;;;;;;;;;;;;;;;4955014;28;20072;-94
2023/08/31 04:55:10;;;;;;;;;;;;;;;;;;4952769;28;19965;-93
2023/08/31 04:57:36;;;;;;;;;;;;;;;;;;4956886;28;19930;-91
2023/08/31 05:00:08;;;;;;;;;;;;;;;;;;4948950;28;19981;-93
2023/08/31 05:02:34;;;;;;;;;;;;;;;;;;4953755;28;19930;-91
2023/08/31 05:05:00;;;;;;;;;;;;;;;;;;4955034;28;19932;-90
2023/08/31 05:07:26;;;;;;;;;;;;;;;;;;4948218;28;20024;-94
2023/08/31 05:09:52;;;;;;;;;;;;;;;;;;4953225;28;19930;-91
2023/08/31 05:12:18;;;;;;;;;;;;;;;;;;4964779;28;20417;-93
2023/08/31 05:14:44;;;;;;;;;;;;;;;;;;4968185;28;20024;-92
2023/08/31 05:17:10;;;;;;;;;;;;;;;;;;4947452;28;19930;-94
2023/08/31 05:19:36;;;;;;;;;;;;;;;;;;4955887;28;20390;-92
2023/08/31 05:22:02;;;;;;;;;;;;;;;;;;4954788;28;19929;-92
2023/08/31 05:24:28;;;;;;;;;;;;;;;;;;4970896;28;20004;-92
2023/08/31 05:26:54;;;;;;;;;;;;;;;;;;4952833;28;19936;-92
2023/08/31 05:29:19;;;;;;;;;;;;;;;;;;4952940;28;20378;-90
2023/08/31 05:31:45;;;;;;;;;;;;;;;;;;4953723;28;19930;-92
2023/08/31 05:34:11;;;;;;;;;;;;;;;;;;4969514;28;19934;-93
2023/08/31 05:36:37;;;;;;;;;;;;;;;;;;4951672;28;20460;-93
2023/08/31 05:39:04;;;;;;;;;;;;;;;;;;4946783;28;19930;-90
2023/08/31 05:41:30;;;;;;;;;;;;;;;;;;4954374;28;19930;-94
2023/08/31 05:43:56;;;;;;;;;;;;;;;;;;4969970;28;19972;-93
2023/08/31 05:46:21;;;;;;;;;;;;;;;;;;4957140;28;19929;-93
2023/08/31 05:48:47;;;;;;;;;;;;;;;;;;4945380;28;20613;-93
2023/08/31 05:51:13;;;;;;;;;;;;;;;;;;4959474;28;19936;-91
2023/08/31 05:53:39;;;;;;;;;;;;;;;;;;4955832;28;19945;-92
2023/08/31 05:56:06;;;;;;;;;;;;;;;;;;4975090;28;19929;-93
2023/08/31 05:58:32;;;;;;;;;;;;;;;;;;4955694;28;19937;-93
2023/08/31 06:00:59;;;;;;;;;;;;;;;;;;4972537;28;20294;-92
2023/08/31 06:03:29;;;;;;;;;;;;;;;;;;4971085;28;19937;-92
2023/08/31 06:05:55;;;;;;;;;;;;;;;;;;4954025;28;20337;-93
2023/08/31 06:08:21;;;;;;;;;;;;;;;;;;4953055;28;19929;-92
2023/08/31 06:10:46;;;;;;;;;;;;;;;;;;4971036;28;19976;-92
2023/08/31 06:13:12;;;;;;;;;;;;;;;;;;4943978;28;20298;-91
2023/08/31 06:15:39;;;;;;;;;;;;;;;;;;4943962;28;19926;-90
2023/08/31 06:18:04;;;;;;;;;;;;;;;;;;4968462;28;19936;-90
2023/08/31 06:20:31;;;;;;;;;;;;;;;;;;4952448;28;19926;-91
2023/08/31 06:22:57;;;;;;;;;;;;;;;;;;4964295;28;20325;-92
2023/08/31 06:25:23;;;;;;;;;;;;;;;;;;4962416;28;19930;-89
2023/08/31 06:27:48;;;;;;;;;;;;;;;;;;4959244;28;19961;-93
2023/08/31 06:30:18;;;;;;;;;;;;;;;;;;4948313;28;20390;-89
2023/08/31 06:32:44;;;;;;;;;;;;;;;;;;4945872;28;20482;-90
2023/08/31 06:35:10;;;;;;;;;;;;;;;;;;4948191;28;20024;-88
2023/08/31 06:37:36;;;;;;;;;;;;;;;;;;4981888;28;20341;-90
2023/08/31 06:40:02;;;;;;;;;;;;;;;;;;4967670;28;20354;-89
2023/08/31 06:42:28;;;;;;;;;;;;;;;;;;4968300;28;19930;-90
2023/08/31 06:44:56;;;;;;;;;;;;;;;;;;4940376;28;19930;-91
2023/08/31 06:47:22;;;;;;;;;;;;;;;;;;4948701;28;19936;-89
2023/08/31 06:49:49;;;;;;;;;;;;;;;;;;4968281;28;19938;-89
2023/08/31 06:52:15;;;;;;;;;;;;;;;;;;4953656;28;20324;-90
2023/08/31 06:54:41;;;;;;;;;;;;;;;;;;4952135;28;19937;-90
2023/08/31 06:57:07;;;;;;;;;;;;;;;;;;4960990;28;19929;-89
2023/08/31 06:59:33;;;;;;;;;;;;;;;;;;4955679;28;20114;-88
2023/08/31 07:01:59;;;;;;;;;;;;;;;;;;4978817;28;19930;-87
2023/08/31 07:04:25;;;;;;;;;;;;;;;;;;4941920;28;19941;-87
2023/08/31 07:06:51;;;;;;;;;;;;;;;;;;4977218;28;19929;-89
2023/08/31 07:09:17;;;;;;;;;;;;;;;;;;4944773;28;20412;-87
2023/08/31 07:11:43;;;;;;;;;;;;;;;;;;4944220;28;19932;-87
2023/08/31 07:14:09;;;;;;;;;;;;;;;;;;4940898;28;19934;-88
2023/08/31 07:16:35;;;;;;;;;;;;;;;;;;4941543;28;20221;-88
2023/08/31 07:19:01;;;;;;;;;;;;;;;;;;4954119;28;19930;-88
2023/08/31 07:21:27;;;;;;;;;;;;;;;;;;4957785;28;19926;-88
2023/08/31 07:23:53;;;;;;;;;;;;;;;;;;4962325;28;20256;-88
2023/08/31 07:26:19;;;;;;;;;;;;;;;;;;4957027;28;19966;-88
2023/08/31 07:28:45;;;;;;;;;;;;;;;;;;4944023;28;20016;-89
2023/08/31 07:31:11;;;;;;;;;;;;;;;;;;4974026;28;19934;-88
2023/08/31 07:33:37;;;;;;;;;;;;;;;;;;4965509;28;19952;-88
2023/08/31 07:36:04;;;;;;;;;;;;;;;;;;4962395;28;19936;-88
2023/08/31 07:38:30;;;;;;;;;;;;;;;;;;4980441;28;19930;-89
2023/08/31 07:40:56;;;;;;;;;;;;;;;;;;4949408;28;19925;-88
2023/08/31 07:43:22;;;;;;;;;;;;;;;;;;4943376;28;19933;-87
2023/08/31 07:45:47;;;;;;;;;;;;;;;;;;4948516;28;19926;-89
2023/08/31 07:48:13;;;;;;;;;;;;;;;;;;4977285;28;20264;-87
2023/08/31 07:50:39;;;;;;;;;;;;;;;;;;4963637;28;19936;-87
2023/08/31 07:53:05;;;;;;;;;;;;;;;;;;4946280;28;19926;-88
2023/08/31 07:55:31;;;;;;;;;;;;;;;;;;4940697;28;19977;-87
2023/08/31 07:57:57;;;;;;;;;;;;;;;;;;4945264;28;20317;-88
2023/08/31 08:00:23;;;;;;;;;;;;;;;;;;4943078;28;19932;-89
2023/08/31 08:02:49;;;;;;;;;;;;;;;;;;4963836;28;20117;-87
2023/08/31 08:05:15;;;;;;;;;;;;;;;;;;4947934;28;19929;-88
2023/08/31 08:07:42;;;;;;;;;;;;;;;;;;4943953;28;20365;-88
2023/08/31 08:10:08;;;;;;;;;;;;;;;;;;4945577;28;19929;-88
2023/08/31 08:12:43;;;;;;;;;;;;;;;;;;4962206;28;19934;-89
2023/08/31 08:15:09;;;;;;;;;;;;;;;;;;4956407;28;20535;-87
2023/08/31 08:17:38;;;;;;;;;;;;;;;;;;4962359;28;19926;-91
2023/08/31 08:20:04;;;;;;;;;;;;;;;;;;4948264;28;19929;-89
2023/08/31 08:22:30;;;;;;;;;;;;;;;;;;4946818;28;20379;-90
2023/08/31 08:24:55;;;;;;;;;;;;;;;;;;4948557;28;20714;-88
2023/08/31 08:27:21;;;;;;;;;;;;;;;;;;4949813;28;19980;-90
2023/08/31 08:29:47;;;;;;;;;;;;;;;;;;4949524;28;19969;-87
2023/08/31 08:32:13;;;;;;;;;;;;;;;;;;4947234;28;19934;-86
2023/08/31 08:34:39;;;;;;;;;;;;;;;;;;4966797;28;20337;-87
2023/08/31 08:37:05;;;;;;;;;;;;;;;;;;4952087;28;19976;-86
2023/08/31 08:39:31;;;;;;;;;;;;;;;;;;4962959;28;19944;-87
2023/08/31 08:41:57;;;;;;;;;;;;;;;;;;4965415;28;21364;-88
2023/08/31 08:44:23;;;;;;;;;;;;;;;;;;4967590;28;20819;-88
2023/08/31 08:46:49;;;;;;;;;;;;;;;;;;4967482;28;19930;-91
2023/08/31 08:49:15;;;;;;;;;;;;;;;;;;4953150;28;19977;-87
2023/08/31 08:51:40;;;;;;;;;;;;;;;;;;4971209;28;20008;-87
2023/08/31 08:54:06;;;;;;;;;;;;;;;;;;4969868;28;19992;-87
2023/08/31 08:56:33;;;;;;;;;;;;;;;;;;4941822;28;19930;-88
2023/08/31 08:58:59;;;;;;;;;;;;;;;;;;4948897;28;19937;-88
2023/08/31 09:01:25;;;;;;;;;;;;;;;;;;4968986;28;19934;-88
2023/08/31 09:03:51;;;;;;;;;;;;;;;;;;4951990;28;20230;-87
2023/08/31 09:06:17;;;;;;;;;;;;;;;;;;4967102;28;20695;-87
2023/08/31 09:08:43;;;;;;;;;;;;;;;;;;4968677;28;19930;-88
2023/08/31 09:11:09;;;;;;;;;;;;;;;;;;4953837;28;20286;-85
2023/08/31 09:13:34;;;;;;;;;;;;;;;;;;4950292;28;20316;-85
2023/08/31 09:16:00;;;;;;;;;;;;;;;;;;4949265;28;19968;-84
2023/08/31 09:18:26;;;;;;;;;;;;;;;;;;4965434;28;20182;-85
2023/08/31 09:20:52;;;;;;;;;;;;;;;;;;4984338;28;19926;-84
2023/08/31 09:23:18;;;;;;;;;;;;;;;;;;4987030;28;20004;-85
2023/08/31 09:25:44;;;;;;;;;;;;;;;;;;4953415;28;19926;-86
2023/08/31 09:28:10;;;;;;;;;;;;;;;;;;4968108;28;19984;-85
2023/08/31 09:30:36;;;;;;;;;;;;;;;;;;4952799;28;19934;-85
2023/08/31 09:33:02;;;;;;;;;;;;;;;;;;4968968;28;20319;-86
2023/08/31 09:35:28;;;;;;;;;;;;;;;;;;4948537;28;19988;-88
2023/08/31 09:37:55;;;;;;;;;;;;;;;;;;4968640;28;20389;-85
2023/08/31 09:40:21;;;;;;;;;;;;;;;;;;4985711;28;20032;-88
2023/08/31 09:42:47;;;;;;;;;;;;;;;;;;4965241;28;20396;-88
2023/08/31 09:45:13;;;;;;;;;;;;;;;;;;4954199;28;19957;-87
2023/08/31 09:47:39;;;;;;;;;;;;;;;;;;4948567;28;20389;-87
2023/08/31 09:50:05;;;;;;;;;;;;;;;;;;4974355;28;19929;-88
2023/08/31 09:52:30;;;;;;;;;;;;;;;;;;4968927;28;19922;-88
2023/08/31 09:54:56;;;;;;;;;;;;;;;;;;4982137;28;19937;-87
2023/08/31 09:57:22;;;;;;;;;;;;;;;;;;4966023;28;20294;-87
2023/08/31 09:59:48;;;;;;;;;;;;;;;;;;4950152;28;20012;-88
2023/08/31 10:02:14;;;;;;;;;;;;;;;;;;4968572;28;19926;-88
2023/08/31 10:04:40;;;;;;;;;;;;;;;;;;4969505;28;19921;-88
2023/08/31 10:07:06;;;;;;;;;;;;;;;;;;4967901;28;19937;-89
2023/08/31 10:09:32;;;;;;;;;;;;;;;;;;4952565;28;19926;-87
2023/08/31 10:11:58;;;;;;;;;;;;;;;;;;4966556;28;20532;-88
2023/08/31 10:14:24;;;;;;;;;;;;;;;;;;4949210;28;20005;-88
2023/08/31 10:16:52;;;;;;;;;;;;;;;;;;4968356;28;20468;-90
2023/08/31 10:19:18;;;;;;;;;;;;;;;;;;4964352;28;19994;-89
2023/08/31 10:21:44;;;;;;;;;;;;;;;;;;4949763;28;20007;-89
2023/08/31 10:24:10;;;;;;;;;;;;;;;;;;4983276;28;20338;-88
2023/08/31 10:26:36;;;;;;;;;;;;;;;;;;4962073;28;19930;-89
2023/08/31 10:29:02;;;;;;;;;;;;;;;;;;4963261;28;19985;-89
2023/08/31 10:31:28;;;;;;;;;;;;;;;;;;4947705;28;19941;-90
2023/08/31 10:33:54;;;;;;;;;;;;;;;;;;4963302;28;19930;-89
2023/08/31 10:36:20;;;;;;;;;;;;;;;;;;4960420;28;19930;-89
2023/08/31 10:38:46;;;;;;;;;;;;;;;;;;4949034;28;19957;-87
2023/08/31 10:41:12;;;;;;;;;;;;;;;;;;4947061;28;19933;-87
2023/08/31 10:43:38;;;;;;;;;;;;;;;;;;4947963;28;19965;-87
2023/08/31 10:46:04;;;;;;;;;;;;;;;;;;4964027;28;20343;-84
2023/08/31 10:48:30;;;;;;;;;;;;;;;;;;4963712;28;20041;-85
2023/08/31 10:50:56;;;;;;;;;;;;;;;;;;4945250;28;19930;-86
2023/08/31 10:53:22;;;;;;;;;;;;;;;;;;4962527;28;19936;-86
2023/08/31 10:55:47;;;;;;;;;;;;;;;;;;4957865;28;20347;-86
2023/08/31 10:58:13;;;;;;;;;;;;;;;;;;4947744;28;19984;-87
2023/08/31 11:00:39;;;;;;;;;;;;;;;;;;4961381;28;19926;-87
2023/08/31 11:03:05;;;;;;;;;;;;;;;;;;4946077;28;19930;-88
2023/08/31 11:05:34;;;;;;;;;;;;;;;;;;4960867;28;19993;-88
2023/08/31 11:08:00;;;;;;;;;;;;;;;;;;4946833;28;19981;-89
2023/08/31 11:10:29;;;;;;;;;;;;;;;;;;4962940;28;19973;-90
2023/08/31 11:12:56;;;;;;;;;;;;;;;;;;4946264;28;19926;-85
2023/08/31 11:15:22;;;;;;;;;;;;;;;;;;4962645;28;19930;-88
2023/08/31 11:17:47;;;;;;;;;;;;;;;;;;4943931;28;19973;-88
2023/08/31 11:20:13;;;;;;;;;;;;;;;;;;4961122;28;19936;-88
2023/08/31 11:22:39;;;;;;;;;;;;;;;;;;4945363;28;20016;-88
2023/08/31 11:25:08;;;;;;;;;;;;;;;;;;4964640;28;19930;-88
2023/08/31 11:27:34;;;;;;;;;;;;;;;;;;4943236;28;19927;-89
2023/08/31 11:30:00;;;;;;;;;;;;;;;;;;4946117;28;19933;-88
2023/08/31 11:32:26;;;;;;;;;;;;;;;;;;4961944;28;19938;-88
2023/08/31 11:34:55;;;;;;;;;;;;;;;;;;4948321;28;20769;-88
2023/08/31 11:37:27;;;;;;;;;;;;;;;;;;4945098;28;19929;-88
2023/08/31 11:39:53;;;;;;;;;;;;;;;;;;4960871;28;20228;-87
2023/08/31 11:42:19;;;;;;;;;;;;;;;;;;4961690;28;20477;-87
2023/08/31 11:44:45;;;;;;;;;;;;;;;;;;4962365;28;19940;-88
2023/08/31 11:47:11;;;;;;;;;;;;;;;;;;4960618;28;20290;-87
2023/08/31 11:49:43;;;;;;;;;;;;;;;;;;4944807;28;20450;-87
2023/08/31 11:52:08;;;;;;;;;;;;;;;;;;4961028;28;19984;-87
2023/08/31 11:54:34;;;;;;;;;;;;;;;;;;4955971;28;20316;-87
2023/08/31 11:57:00;;;;;;;;;;;;;;;;;;4960287;28;19981;-87
2023/08/31 11:59:26;;;;;;;;;;;;;;;;;;4948551;28;19965;-88
2023/08/31 12:01:52;;;;;;;;;;;;;;;;;;4943261;28;19980;-87
2023/08/31 12:04:18;;;;;;;;;;;;;;;;;;4961342;28;19930;-87
2023/08/31 12:06:44;;;;;;;;;;;;;;;;;;4960568;28;19966;-86
2023/08/31 12:09:11;;;;;;;;;;;;;;;;;;4943776;28;20066;-85
2023/08/31 12:11:37;;;;;;;;;;;;;;;;;;4963839;28;19985;-84
2023/08/31 12:14:04;;;;;;;;;;;;;;;;;;4963682;28;20009;-86
2023/08/31 12:16:30;;;;;;;;;;;;;;;;;;4945406;28;19934;-84
2023/08/31 12:18:56;;;;;;;;;;;;;;;;;;4963083;28;20334;-84
2023/08/31 12:21:22;;;;;;;;;;;;;;;;;;4946219;28;19929;-85
2023/08/31 12:23:48;;;;;;;;;;;;;;;;;;4947150;28;19956;-87
2023/08/31 12:26:14;;;;;;;;;;;;;;;;;;4958840;28;19937;-87
2023/08/31 12:28:41;;;;;;;;;;;;;;;;;;4958286;28;20405;-87
2023/08/31 12:31:07;;;;;;;;;;;;;;;;;;4960036;28;19934;-87
2023/08/31 12:33:33;;;;;;;;;;;;;;;;;;4962603;28;20064;-87
2023/08/31 12:35:59;;;;;;;;;;;;;;;;;;4959575;28;19930;-87
2023/08/31 12:38:24;;;;;;;;;;;;;;;;;;4943917;28;20316;-87
2023/08/31 12:40:50;;;;;;;;;;;;;;;;;;4962158;28;19970;-88
2023/08/31 12:43:16;;;;;;;;;;;;;;;;;;4947902;28;19937;-87
2023/08/31 12:45:42;;;;;;;;;;;;;;;;;;4960333;28;20238;-87
2023/08/31 12:48:08;;;;;;;;;;;;;;;;;;4961154;28;19930;-86
2023/08/31 12:50:34;;;;;;;;;;;;;;;;;;4961577;28;20704;-86
2023/08/31 12:53:00;;;;;;;;;;;;;;;;;;4946478;28;19926;-86
2023/08/31 12:55:26;;;;;;;;;;;;;;;;;;4946466;28;19930;-86
2023/08/31 12:57:52;;;;;;;;;;;;;;;;;;4960968;28;20592;-87
2023/08/31 13:00:18;;;;;;;;;;;;;;;;;;4960327;28;19941;-87
2023/08/31 13:02:45;;;;;;;;;;;;;;;;;;4958184;28;19930;-87
2023/08/31 13:05:14;;;;;;;;;;;;;;;;;;4944907;28;19930;-87
2023/08/31 13:07:40;;;;;;;;;;;;;;;;;;4960633;28;19930;-87
2023/08/31 13:10:06;;;;;;;;;;;;;;;;;;4965584;28;19926;-87
2023/08/31 13:12:32;;;;;;;;;;;;;;;;;;4946615;28;19941;-87
2023/08/31 13:14:58;;;;;;;;;;;;;;;;;;4964032;28;19926;-86
2023/08/31 13:17:26;;;;;;;;;;;;;;;;;;4949123;28;19945;-88
2023/08/31 13:19:52;;;;;;;;;;;;;;;;;;4950607;28;19922;-87
2023/08/31 13:22:18;;;;;;;;;;;;;;;;;;4966493;28;19930;-88
2023/08/31 13:24:44;;;;;;;;;;;;;;;;;;4964315;28;20437;-87
2023/08/31 13:27:10;;;;;;;;;;;;;;;;;;4978777;28;20060;-87
2023/08/31 13:29:36;;;;;;;;;;;;;;;;;;4968371;28;20008;-86
2023/08/31 13:32:02;;;;;;;;;;;;;;;;;;4966055;28;20048;-87
2023/08/31 13:34:29;;;;;;;;;;;;;;;;;;4968739;28;19940;-87
2023/08/31 13:36:55;;;;;;;;;;;;;;;;;;4948225;28;19930;-86
2023/08/31 13:39:23;;;;;;;;;;;;;;;;;;4969134;28;19929;-86
2023/08/31 13:41:49;;;;;;;;;;;;;;;;;;4968138;28;19926;-87
2023/08/31 13:44:15;;;;;;;;;;;;;;;;;;4965995;28;19921;-86
2023/08/31 13:46:41;;;;;;;;;;;;;;;;;;4950226;28;19969;-87
2023/08/31 13:49:07;;;;;;;;;;;;;;;;;;4950624;28;19937;-87
2023/08/31 13:51:33;;;;;;;;;;;;;;;;;;4949597;28;19941;-87
2023/08/31 13:53:59;;;;;;;;;;;;;;;;;;4968922;28;19965;-87
2023/08/31 13:56:25;;;;;;;;;;;;;;;;;;4965579;28;19934;-88
2023/08/31 13:58:51;;;;;;;;;;;;;;;;;;4950242;28;19929;-87
2023/08/31 14:01:16;;;;;;;;;;;;;;;;;;4968169;28;19992;-86
2023/08/31 14:03:42;;;;;;;;;;;;;;;;;;4968690;28;19941;-87
2023/08/31 14:06:08;;;;;;;;;;;;;;;;;;4965838;28;19929;-88
2023/08/31 14:08:34;;;;;;;;;;;;;;;;;;4967110;28;20149;-88
2023/08/31 14:11:01;;;;;;;;;;;;;;;;;;4955317;28;19929;-87
2023/08/31 14:13:27;;;;;;;;;;;;;;;;;;4954584;28;19930;-87
2023/08/31 14:15:53;;;;;;;;;;;;;;;;;;4971417;28;19961;-87
2023/08/31 14:18:19;;;;;;;;;;;;;;;;;;4966330;28;20020;-87
2023/08/31 14:20:45;;;;;;;;;;;;;;;;;;4972657;28;20020;-87
2023/08/31 14:23:12;;;;;;;;;;;;;;;;;;4967020;28;19926;-87
2023/08/31 14:25:38;;;;;;;;;;;;;;;;;;4966528;28;19995;-87
2023/08/31 14:28:04;;;;;;;;;;;;;;;;;;4946766;28;20036;-87
2023/08/31 14:30:29;;;;;;;;;;;;;;;;;;4948569;28;20024;-88
2023/08/31 14:32:55;;;;;;;;;;;;;;;;;;4985080;28;19965;-87
2023/08/31 14:35:21;;;;;;;;;;;;;;;;;;4963945;28;19964;-87
2023/08/31 14:37:47;;;;;;;;;;;;;;;;;;4986553;28;19973;-87
2023/08/31 14:40:14;;;;;;;;;;;;;;;;;;4963685;28;20395;-87
2023/08/31 14:42:40;;;;;;;;;;;;;;;;;;4965339;28;19929;-89
2023/08/31 14:45:06;;;;;;;;;;;;;;;;;;4982120;28;20404;-88
2023/08/31 14:47:32;;;;;;;;;;;;;;;;;;4946597;28;19969;-87
2023/08/31 14:49:58;;;;;;;;;;;;;;;;;;4978711;28;20001;-88
2023/08/31 14:52:24;;;;;;;;;;;;;;;;;;4946343;28;20004;-87
2023/08/31 14:54:50;;;;;;;;;;;;;;;;;;4962000;28;19930;-87
2023/08/31 14:57:16;;;;;;;;;;;;;;;;;;4942783;28;19938;-85
2023/08/31 14:59:42;;;;;;;;;;;;;;;;;;4962808;28;19997;-86
2023/08/31 15:02:08;;;;;;;;;;;;;;;;;;4961510;28;19935;-86
2023/08/31 15:04:33;;;;;;;;;;;;;;;;;;4965473;28;19929;-87
2023/08/31 15:06:59;;;;;;;;;;;;;;;;;;4945466;28;20324;-87
2023/08/31 15:09:26;;;;;;;;;;;;;;;;;;4961667;28;19930;-87
2023/08/31 15:11:52;;;;;;;;;;;;;;;;;;4946447;28;19929;-87
2023/08/31 15:14:18;;;;;;;;;;;;;;;;;;4960790;28;19926;-87
2023/08/31 15:16:44;;;;;;;;;;;;;;;;;;4961631;28;19930;-87
2023/08/31 15:19:10;;;;;;;;;;;;;;;;;;4950637;28;20027;-86
2023/08/31 15:21:35;;;;;;;;;;;;;;;;;;4965298;28;19930;-87
2023/08/31 15:24:02;;;;;;;;;;;;;;;;;;4963328;28;20374;-87
2023/08/31 15:26:28;;;;;;;;;;;;;;;;;;4943800;28;19930;-86
2023/08/31 15:28:57;;;;;;;;;;;;;;;;;;4939062;28;20414;-88
2023/08/31 15:31:23;;;;;;;;;;;;;;;;;;4941377;28;19937;-87
2023/08/31 15:33:49;;;;;;;;;;;;;;;;;;4960336;28;20322;-87
2023/08/31 15:36:16;;;;;;;;;;;;;;;;;;4946111;28;19925;-87
2023/08/31 15:38:42;;;;;;;;;;;;;;;;;;4964509;28;19934;-87
2023/08/31 15:41:08;;;;;;;;;;;;;;;;;;4962888;28;19936;-89
2023/08/31 15:43:35;;;;;;;;;;;;;;;;;;4981775;28;20386;-87
2023/08/31 15:46:01;;;;;;;;;;;;;;;;;;4965047;28;20508;-87
2023/08/31 15:48:28;;;;;;;;;;;;;;;;;;4965591;28;20209;-87
2023/08/31 15:50:54;;;;;;;;;;;;;;;;;;4960709;28;19972;-86
2023/08/31 15:53:20;;;;;;;;;;;;;;;;;;4981434;28;20020;-88
2023/08/31 15:55:48;;;;;;;;;;;;;;;;;;4950083;28;20382;-87
2023/08/31 15:58:14;;;;;;;;;;;;;;;;;;4948633;28;20386;-88
2023/08/31 16:00:40;;;;;;;;;;;;;;;;;;4940915;28;19984;-88
2023/08/31 16:03:08;;;;;;;;;;;;;;;;;;4957991;28;19926;-88
2023/08/31 16:05:34;;;;;;;;;;;;;;;;;;4941477;28;20323;-89
2023/08/31 16:08:00;;;;;;;;;;;;;;;;;;4946309;28;19930;-88
2023/08/31 16:10:26;;;;;;;;;;;;;;;;;;4958182;28;19964;-87
2023/08/31 16:12:52;;;;;;;;;;;;;;;;;;4960283;28;19929;-86
2023/08/31 16:15:18;;;;;;;;;;;;;;;;;;4944551;28;19926;-89
2023/08/31 16:17:44;;;;;;;;;;;;;;;;;;4961699;28;20411;-87
2023/08/31 16:20:10;;;;;;;;;;;;;;;;;;4947830;28;20011;-88
2023/08/31 16:22:36;;;;;;;;;;;;;;;;;;4948022;28;19934;-87
2023/08/31 16:25:04;;;;;;;;;;;;;;;;;;4983731;28;19936;-88
2023/08/31 16:27:31;;;;;;;;;;;;;;;;;;4945284;28;19968;-88
2023/08/31 16:29:57;;;;;;;;;;;;;;;;;;4960512;28;19969;-88
2023/08/31 16:32:25;;;;;;;;;;;;;;;;;;4963338;28;20298;-88
2023/08/31 16:34:54;;;;;;;;;;;;;;;;;;4963043;28;19941;-87
2023/08/31 16:37:20;;;;;;;;;;;;;;;;;;4941933;28;21414;-88
2023/08/31 16:39:46;;;;;;;;;;;;;;;;;;4960586;28;20061;-87